createdAt,value
2022-09-29T00:02:04.313Z,81.67
2022-09-29T00:04:26.124Z,81.60
2022-09-29T00:06:47.953Z,81.56
2022-09-29T00:09:09.729Z,81.80
2022-09-29T00:11:31.511Z,81.55
2022-09-29T00:13:55.026Z,81.80
2022-09-29T00:16:17.288Z,81.90
2022-09-29T00:18:40.025Z,81.88
2022-09-29T00:21:07.732Z,81.76
2022-09-29T00:23:32.296Z,81.80
2022-09-29T00:26:11.995Z,81.96
2022-09-29T00:28:36.334Z,82.19
2022-09-29T00:31:01.260Z,81.47
2022-09-29T00:33:23.224Z,81.40
2022-09-29T00:35:44.976Z,81.81
2022-09-29T00:38:06.732Z,81.99
2022-09-29T00:40:28.503Z,81.58
2022-09-29T00:42:50.271Z,81.81
2022-09-29T00:45:21.269Z,81.47
2022-09-29T00:47:46.724Z,82.20
2022-09-29T00:50:44.471Z,81.58
2022-09-29T00:53:12.109Z,81.88
2022-09-29T00:55:44.204Z,81.85
2022-09-29T00:58:23.755Z,81.70
2022-09-29T01:00:45.902Z,82.17
2022-09-29T01:03:17.697Z,81.88
2022-09-29T01:05:49.581Z,81.88
2022-09-29T01:08:23.181Z,82.08
2022-09-29T01:10:46.200Z,82.36
2022-09-29T01:13:08.246Z,81.85
2022-09-29T01:15:30.403Z,81.73
2022-09-29T01:17:52.231Z,81.92
2022-09-29T01:20:20.709Z,81.65
2022-09-29T01:23:21.000Z,81.70
2022-09-29T01:26:33.551Z,81.73
2022-09-29T01:29:39.880Z,81.51
2022-09-29T01:32:38.462Z,81.73
2022-09-29T01:35:26.636Z,81.82
2022-09-29T01:38:12.833Z,81.51
2022-09-29T01:41:10.577Z,82.18
2022-09-29T01:43:40.134Z,81.71
2022-09-29T01:46:15.682Z,81.78
2022-09-29T01:48:46.872Z,81.58
2022-09-29T01:51:24.939Z,81.89
2022-09-29T01:53:53.018Z,81.81
2022-09-29T01:56:25.794Z,81.54
2022-09-29T01:58:56.898Z,81.96
2022-09-29T02:01:26.019Z,81.35
2022-09-29T02:03:58.045Z,81.21
2022-09-29T02:06:33.202Z,81.53
2022-09-29T02:09:03.549Z,81.41
2022-09-29T02:11:27.873Z,81.13
2022-09-29T02:14:16.126Z,81.20
2022-09-29T02:16:49.313Z,81.18
2022-09-29T02:19:19.123Z,81.29
2022-09-29T02:21:41.065Z,80.55
2022-09-29T02:24:03.201Z,80.99
2022-09-29T02:26:36.061Z,80.73
2022-09-29T02:28:58.250Z,81.10
2022-09-29T02:31:20.298Z,80.57
2022-09-29T02:33:42.165Z,81.06
2022-09-29T02:36:21.857Z,81.12
2022-09-29T02:39:05.248Z,80.75
2022-09-29T02:41:43.807Z,81.01
2022-09-29T02:44:24.815Z,81.01
2022-09-29T02:47:45.915Z,81.18
2022-09-29T02:50:39.641Z,81.67
2022-09-29T02:53:19.477Z,81.32
2022-09-29T02:55:52.840Z,81.37
2022-09-29T02:58:38.507Z,81.56
2022-09-29T03:01:01.065Z,80.92
2022-09-29T03:03:22.949Z,81.41
2022-09-29T03:05:44.803Z,80.94
2022-09-29T03:08:06.578Z,81.25
2022-09-29T03:10:30.317Z,81.55
2022-09-29T03:12:52.331Z,81.06
2022-09-29T03:15:14.515Z,81.63
2022-09-29T03:17:36.273Z,81.13
2022-09-29T03:19:58.091Z,81.16
2022-09-29T03:22:19.883Z,80.89
2022-09-29T03:24:42.086Z,81.43
2022-09-29T03:27:04.529Z,81.40
2022-09-29T03:29:26.357Z,81.79
2022-09-29T03:31:48.246Z,81.20
2022-09-29T03:34:10.285Z,81.01
2022-09-29T03:36:32.147Z,81.63
2022-09-29T03:38:53.954Z,81.38
2022-09-29T03:41:16.695Z,81.04
2022-09-29T03:43:38.503Z,80.86
2022-09-29T03:46:00.439Z,81.42
2022-09-29T03:48:24.835Z,81.00
2022-09-29T03:50:47.854Z,80.90
2022-09-29T03:53:09.624Z,80.92
2022-09-29T03:55:31.522Z,81.01
2022-09-29T03:57:53.288Z,80.89
2022-09-29T04:00:15.673Z,80.87
2022-09-29T04:02:37.514Z,81.44
2022-09-29T04:04:59.288Z,80.84
2022-09-29T04:07:21.141Z,81.16
2022-09-29T04:09:43.193Z,80.92
2022-09-29T04:12:05.395Z,81.16
2022-09-29T04:14:27.214Z,81.27
2022-09-29T04:16:49.104Z,81.16
2022-09-29T04:19:10.846Z,80.81
2022-09-29T04:21:32.705Z,81.26
2022-09-29T04:23:54.573Z,80.81
2022-09-29T04:26:16.839Z,81.21
2022-09-29T04:28:39.145Z,80.88
2022-09-29T04:31:01.535Z,80.64
2022-09-29T04:33:23.326Z,81.21
2022-09-29T04:35:46.212Z,80.73
2022-09-29T04:38:08.628Z,80.85
2022-09-29T04:40:30.512Z,81.07
2022-09-29T04:42:52.596Z,80.94
2022-09-29T04:45:14.597Z,81.06
2022-09-29T04:47:36.352Z,81.34
2022-09-29T04:49:58.240Z,80.86
2022-09-29T04:52:20.229Z,81.20
2022-09-29T04:54:41.982Z,81.24
2022-09-29T04:57:04.010Z,80.97
2022-09-29T04:59:25.942Z,81.73
2022-09-29T05:01:49.671Z,80.94
2022-09-29T05:04:13.591Z,81.09
2022-09-29T05:06:39.561Z,80.92
2022-09-29T05:09:01.311Z,81.06
2022-09-29T05:11:23.522Z,80.60
2022-09-29T05:13:51.004Z,81.11
2022-09-29T05:16:12.855Z,80.92
2022-09-29T05:18:35.137Z,81.30
2022-09-29T05:21:23.323Z,81.08
2022-09-29T05:23:44.212Z,81.10
2022-09-29T05:26:09.021Z,81.17
2022-09-29T05:28:30.963Z,81.39
2022-09-29T05:30:52.792Z,81.45
2022-09-29T05:33:14.552Z,81.40
2022-09-29T05:35:36.488Z,80.88
2022-09-29T05:37:58.357Z,81.32
2022-09-29T05:40:24.159Z,80.86
2022-09-29T05:42:46.284Z,80.91
2022-09-29T05:45:10.905Z,80.79
2022-09-29T05:47:32.730Z,81.19
2022-09-29T05:49:54.481Z,80.95
2022-09-29T05:52:16.432Z,81.54
2022-09-29T05:54:38.199Z,81.23
2022-09-29T05:56:59.963Z,80.94
2022-09-29T05:59:21.991Z,81.52
2022-09-29T06:01:43.996Z,81.18
2022-09-29T06:04:05.902Z,81.51
2022-09-29T06:06:29.947Z,81.59
2022-09-29T06:08:53.071Z,81.26
2022-09-29T06:11:27.777Z,81.41
2022-09-29T06:13:52.525Z,82.00
2022-09-29T06:16:17.626Z,81.57
2022-09-29T06:18:40.742Z,81.70
2022-09-29T06:21:13.338Z,81.53
2022-09-29T06:23:35.879Z,82.08
2022-09-29T06:26:06.047Z,81.40
2022-09-29T06:28:29.261Z,81.88
2022-09-29T06:30:51.712Z,81.79
2022-09-29T06:33:13.512Z,81.94
2022-09-29T06:35:53.871Z,82.04
2022-09-29T06:38:17.011Z,81.55
2022-09-29T06:40:38.806Z,81.27
2022-09-29T06:43:00.965Z,79.26
2022-09-29T06:45:22.748Z,78.43
2022-09-29T06:47:44.531Z,77.83
2022-09-29T06:50:13.143Z,77.58
2022-09-29T06:52:39.538Z,78.26
2022-09-29T06:55:01.333Z,78.50
2022-09-29T06:57:23.139Z,79.10
2022-09-29T06:59:45.241Z,79.56
2022-09-29T07:02:07.130Z,79.68
2022-09-29T07:04:29.282Z,79.93
2022-09-29T07:06:52.054Z,79.94
2022-09-29T07:09:16.351Z,80.48
2022-09-29T07:11:40.300Z,80.74
2022-09-29T07:14:02.255Z,81.10
2022-09-29T07:16:24.892Z,81.27
2022-09-29T07:18:47.137Z,81.26
2022-09-29T07:21:18.769Z,81.60
2022-09-29T07:23:42.343Z,81.61
2022-09-29T07:26:07.954Z,81.63
2022-09-29T07:28:30.275Z,81.67
2022-09-29T07:31:20.151Z,81.95
2022-09-29T07:33:46.168Z,82.07
2022-09-29T07:36:08.440Z,82.27
2022-09-29T07:38:31.174Z,82.05
2022-09-29T07:40:53.199Z,82.07
2022-09-29T07:43:15.065Z,81.78
2022-09-29T07:45:36.834Z,81.76
2022-09-29T07:47:58.641Z,81.73
2022-09-29T07:50:20.428Z,81.56
2022-09-29T07:52:42.166Z,81.57
2022-09-29T07:55:05.586Z,81.48
2022-09-29T07:57:27.418Z,81.63
2022-09-29T07:59:53.213Z,81.16
2022-09-29T08:02:15.377Z,81.23
2022-09-29T08:04:37.204Z,80.75
2022-09-29T08:06:59.691Z,80.80
2022-09-29T08:09:25.343Z,80.41
2022-09-29T08:11:54.106Z,80.54
2022-09-29T08:14:22.479Z,80.39
2022-09-29T08:16:44.300Z,80.37
2022-09-29T08:19:07.180Z,80.29
2022-09-29T08:21:31.928Z,79.61
2022-09-29T08:23:53.722Z,79.66
2022-09-29T08:26:22.826Z,79.51
2022-09-29T08:29:00.957Z,79.42
2022-09-29T08:31:26.246Z,79.20
2022-09-29T08:33:50.602Z,78.62
2022-09-29T08:36:15.111Z,78.56
2022-09-29T08:38:42.732Z,78.90
2022-09-29T08:41:06.199Z,78.71
2022-09-29T08:44:37.814Z,77.82
2022-09-29T08:47:46.117Z,78.00
2022-09-29T08:50:21.916Z,77.50
2022-09-29T08:52:53.160Z,77.49
2022-09-29T08:55:21.560Z,77.31
2022-09-29T08:57:51.352Z,77.32
2022-09-29T09:00:18.132Z,76.98
2022-09-29T09:03:41.250Z,76.22
2022-09-29T09:06:15.437Z,76.17
2022-09-29T09:09:01.570Z,76.03
2022-09-29T09:11:41.006Z,75.91
2022-09-29T09:14:13.741Z,75.34
2022-09-29T09:16:47.871Z,75.45
2022-09-29T09:19:34.420Z,75.21
2022-09-29T09:22:22.863Z,74.90
2022-09-29T09:25:05.114Z,74.76
2022-09-29T09:28:02.636Z,73.93
2022-09-29T09:30:31.256Z,74.21
2022-09-29T09:33:01.852Z,74.09
2022-09-29T09:35:55.111Z,73.88
2022-09-29T09:38:34.072Z,73.10
2022-09-29T09:41:00.343Z,72.64
2022-09-29T09:43:34.037Z,72.51
2022-09-29T09:46:17.676Z,72.22
2022-09-29T09:48:51.152Z,72.01
2022-09-29T09:51:54.926Z,71.13
2022-09-29T09:54:37.034Z,71.12
2022-09-29T09:57:11.019Z,70.06
2022-09-29T09:59:52.790Z,69.07
2022-09-29T10:02:21.084Z,69.28
2022-09-29T10:04:44.101Z,69.49
2022-09-29T10:07:05.947Z,68.73
2022-09-29T10:09:28.743Z,68.60
2022-09-29T10:11:51.229Z,68.44
2022-09-29T10:14:22.865Z,68.65
2022-09-29T10:17:01.950Z,68.56
2022-09-29T10:19:53.130Z,68.46
2022-09-29T10:22:15.512Z,68.14
2022-09-29T10:24:37.347Z,67.83
2022-09-29T10:27:02.708Z,67.94
2022-09-29T10:29:40.793Z,67.64
2022-09-29T10:32:37.505Z,67.88
2022-09-29T10:35:22.511Z,67.04
2022-09-29T10:37:52.941Z,67.03
2022-09-29T10:40:23.883Z,66.72
2022-09-29T10:42:49.371Z,66.92
2022-09-29T10:45:15.410Z,66.91
2022-09-29T10:47:38.261Z,66.89
2022-09-29T10:50:09.660Z,65.49
2022-09-29T10:52:31.656Z,65.39
2022-09-29T10:55:00.712Z,65.17
2022-09-29T10:57:27.954Z,65.04
2022-09-29T10:59:53.205Z,64.55
2022-09-29T11:02:35.092Z,64.33
2022-09-29T11:05:03.831Z,64.45
2022-09-29T11:07:26.059Z,64.94
2022-09-29T11:09:48.208Z,64.25
2022-09-29T11:12:35.105Z,63.51
2022-09-29T11:14:57.165Z,62.65
2022-09-29T11:17:39.650Z,62.72
2022-09-29T11:20:06.794Z,63.32
2022-09-29T11:22:34.651Z,63.56
2022-09-29T11:25:44.381Z,62.90
2022-09-29T11:28:29.371Z,61.68
2022-09-29T11:31:15.348Z,60.55
2022-09-29T11:33:49.462Z,61.66
2022-09-29T11:37:07.239Z,61.43
2022-09-29T11:40:03.477Z,60.80
2022-09-29T11:43:01.766Z,60.67
2022-09-29T11:45:59.564Z,59.72
2022-09-29T11:48:47.496Z,60.18
2022-09-29T11:51:28.790Z,59.38
2022-09-29T11:54:37.158Z,59.48
2022-09-29T11:57:10.726Z,60.50
2022-09-29T12:00:00.751Z,61.71
2022-09-29T12:02:41.542Z,61.63
2022-09-29T12:05:18.104Z,61.40
2022-09-29T12:08:06.149Z,60.93
2022-09-29T12:10:48.408Z,60.82
2022-09-29T12:13:50.569Z,59.83
2022-09-29T12:16:21.139Z,59.31
2022-09-29T12:18:58.451Z,59.21
2022-09-29T12:21:37.870Z,58.78
2022-09-29T12:24:06.274Z,58.53
2022-09-29T12:26:29.262Z,58.60
2022-09-29T12:29:28.900Z,59.07
2022-09-29T12:31:56.155Z,59.64
2022-09-29T12:34:33.962Z,60.04
2022-09-29T12:37:10.606Z,59.94
2022-09-29T12:40:06.367Z,59.11
2022-09-29T12:43:02.698Z,59.60
2022-09-29T12:45:46.996Z,60.26
2022-09-29T12:48:45.806Z,60.72
2022-09-29T12:51:35.330Z,61.21
2022-09-29T12:54:11.144Z,61.29
2022-09-29T12:56:41.987Z,61.38
2022-09-29T12:59:14.302Z,60.93
2022-09-29T13:01:38.574Z,60.48
2022-09-29T13:04:58.874Z,60.34
2022-09-29T13:08:02.819Z,60.52
2022-09-29T13:11:17.020Z,60.16
2022-09-29T13:13:44.988Z,59.51
2022-09-29T13:16:31.373Z,59.18
2022-09-29T13:19:55.743Z,58.41
2022-09-29T13:22:53.257Z,57.51
2022-09-29T13:25:40.942Z,55.70
2022-09-29T13:28:41.191Z,56.25
2022-09-29T13:31:09.302Z,54.82
2022-09-29T13:33:31.624Z,54.99
2022-09-29T13:35:54.445Z,55.48
2022-09-29T13:38:39.418Z,55.14
2022-09-29T13:41:37.336Z,54.35
2022-09-29T13:43:59.069Z,53.97
2022-09-29T13:46:32.810Z,53.26
2022-09-29T13:49:08.665Z,53.82
2022-09-29T13:51:55.079Z,52.26
2022-09-29T13:54:52.538Z,52.20
2022-09-29T13:57:23.748Z,52.14
2022-09-29T14:00:15.171Z,52.53
2022-09-29T14:02:44.253Z,52.82
2022-09-29T14:05:27.011Z,52.71
2022-09-29T14:08:16.422Z,52.91
2022-09-29T14:10:47.314Z,52.93
2022-09-29T14:13:27.959Z,53.74
2022-09-29T14:16:07.127Z,53.48
2022-09-29T14:18:43.949Z,53.76
2022-09-29T14:21:14.820Z,53.86
2022-09-29T14:23:45.872Z,53.40
2022-09-29T14:26:49.775Z,54.09
2022-09-29T14:29:36.980Z,54.75
2022-09-29T14:32:02.506Z,55.27
2022-09-29T14:34:31.619Z,55.24
2022-09-29T14:36:57.692Z,55.73
2022-09-29T14:39:26.513Z,56.64
2022-09-29T14:41:49.783Z,57.05
2022-09-29T14:44:23.430Z,56.68
2022-09-29T14:47:17.010Z,56.95
2022-09-29T14:50:45.860Z,57.23
2022-09-29T14:53:45.196Z,57.47
2022-09-29T14:56:44.183Z,57.40
2022-09-29T14:59:35.484Z,57.84
2022-09-29T15:02:16.615Z,58.03
2022-09-29T15:04:42.064Z,57.93
2022-09-29T15:07:04.907Z,57.70
2022-09-29T15:09:26.828Z,57.50
2022-09-29T15:12:04.398Z,56.94
2022-09-29T15:14:36.948Z,56.44
2022-09-29T15:17:38.978Z,55.85
2022-09-29T15:21:04.688Z,55.76
2022-09-29T15:24:14.552Z,55.35
2022-09-29T15:26:38.323Z,54.89
2022-09-29T15:29:00.879Z,54.61
2022-09-29T15:31:34.286Z,54.42
2022-09-29T15:33:56.570Z,53.87
2022-09-29T15:36:26.797Z,54.15
2022-09-29T15:39:42.379Z,54.47
2022-09-29T15:42:23.612Z,53.71
2022-09-29T15:45:02.917Z,52.74
2022-09-29T15:47:37.705Z,52.97
2022-09-29T15:50:17.466Z,53.13
2022-09-29T15:52:39.488Z,53.18
2022-09-29T15:55:01.466Z,53.47
2022-09-29T15:57:43.435Z,53.45
2022-09-29T16:00:06.414Z,53.62
2022-09-29T16:02:42.784Z,53.81
2022-09-29T16:05:15.681Z,54.45
2022-09-29T16:07:48.841Z,54.68
2022-09-29T16:10:19.027Z,55.03
2022-09-29T16:12:58.828Z,54.95
2022-09-29T16:15:27.075Z,55.64
2022-09-29T16:17:51.007Z,55.69
2022-09-29T16:20:23.749Z,55.84
2022-09-29T16:22:49.914Z,56.21
2022-09-29T16:25:28.719Z,56.53
2022-09-29T16:27:58.685Z,56.65
2022-09-29T16:30:25.215Z,56.96
2022-09-29T16:32:57.153Z,57.30
2022-09-29T16:35:48.920Z,57.45
2022-09-29T16:38:25.283Z,57.65
2022-09-29T16:40:47.870Z,58.16
2022-09-29T16:43:31.129Z,58.13
2022-09-29T16:45:57.109Z,58.51
2022-09-29T16:48:20.617Z,58.57
2022-09-29T16:50:54.237Z,58.98
2022-09-29T16:53:33.169Z,59.21
2022-09-29T16:56:09.580Z,59.41
2022-09-29T16:58:31.842Z,59.61
2022-09-29T17:00:54.217Z,59.63
2022-09-29T17:03:16.119Z,59.87
2022-09-29T17:05:43.752Z,60.10
2022-09-29T17:08:15.841Z,60.44
2022-09-29T17:10:37.840Z,60.67
2022-09-29T17:13:00.103Z,60.90
2022-09-29T17:15:23.569Z,61.06
2022-09-29T17:17:48.966Z,60.92
2022-09-29T17:20:18.622Z,61.42
2022-09-29T17:22:40.624Z,61.99
2022-09-29T17:25:04.214Z,62.10
2022-09-29T17:27:46.384Z,62.48
2022-09-29T17:30:10.610Z,62.64
2022-09-29T17:32:32.469Z,62.85
2022-09-29T17:34:54.256Z,63.34
2022-09-29T17:37:19.407Z,63.14
2022-09-29T17:39:41.164Z,63.60
2022-09-29T17:42:03.004Z,63.59
2022-09-29T17:44:27.053Z,64.21
2022-09-29T17:46:50.611Z,64.77
2022-09-29T17:49:17.928Z,65.31
2022-09-29T17:51:39.872Z,65.63
2022-09-29T17:54:01.643Z,65.91
2022-09-29T17:56:26.151Z,66.50
2022-09-29T17:58:51.866Z,66.30
2022-09-29T18:01:16.099Z,66.72
2022-09-29T18:03:40.143Z,66.69
2022-09-29T18:06:02.334Z,67.08
2022-09-29T18:08:27.468Z,67.22
2022-09-29T18:10:56.867Z,67.18
2022-09-29T18:13:20.305Z,67.52
2022-09-29T18:15:43.801Z,67.83
2022-09-29T18:18:08.073Z,67.79
2022-09-29T18:20:33.812Z,67.72
2022-09-29T18:23:00.197Z,68.12
2022-09-29T18:25:22.059Z,67.98
2022-09-29T18:27:46.371Z,68.32
2022-09-29T18:30:21.104Z,68.29
2022-09-29T18:32:42.847Z,68.34
2022-09-29T18:35:14.444Z,68.86
2022-09-29T18:37:36.320Z,68.68
2022-09-29T18:39:58.100Z,68.85
2022-09-29T18:42:19.884Z,68.80
2022-09-29T18:44:41.697Z,68.95
2022-09-29T18:47:03.505Z,68.97
2022-09-29T18:49:25.308Z,69.15
2022-09-29T18:51:47.124Z,69.07
2022-09-29T18:54:08.957Z,69.56
2022-09-29T18:56:31.057Z,69.64
2022-09-29T18:58:52.823Z,69.57
2022-09-29T19:01:23.176Z,69.56
2022-09-29T19:03:45.068Z,69.74
2022-09-29T19:06:08.663Z,69.80
2022-09-29T19:08:33.369Z,69.92
2022-09-29T19:10:58.446Z,70.34
2022-09-29T19:13:21.791Z,69.81
2022-09-29T19:15:46.264Z,70.60
2022-09-29T19:18:09.820Z,70.31
2022-09-29T19:20:32.056Z,70.15
2022-09-29T19:22:55.966Z,70.65
2022-09-29T19:25:22.524Z,70.56
2022-09-29T19:27:45.778Z,70.62
2022-09-29T19:30:09.327Z,70.75
2022-09-29T19:32:31.480Z,71.03
2022-09-29T19:34:54.935Z,71.02
2022-09-29T19:37:17.478Z,71.04
2022-09-29T19:39:42.411Z,71.27
2022-09-29T19:42:08.153Z,71.54
2022-09-29T19:44:32.109Z,71.17
2022-09-29T19:46:53.906Z,71.33
2022-09-29T19:49:16.441Z,71.77
2022-09-29T19:51:50.127Z,71.73
2022-09-29T19:54:14.376Z,71.55
2022-09-29T19:56:49.337Z,71.70
2022-09-29T19:59:14.891Z,72.04
2022-09-29T20:01:37.211Z,71.53
2022-09-29T20:03:59.137Z,71.58
2022-09-29T20:06:21.969Z,71.64
2022-09-29T20:08:43.712Z,71.49
2022-09-29T20:11:09.002Z,71.74
2022-09-29T20:13:30.830Z,71.74
2022-09-29T20:15:53.289Z,71.92
2022-09-29T20:18:15.234Z,71.72
2022-09-29T20:20:38.414Z,71.81
2022-09-29T20:23:02.096Z,71.46
2022-09-29T20:25:23.858Z,71.87
2022-09-29T20:27:45.895Z,72.03
2022-09-29T20:30:08.938Z,72.23
2022-09-29T20:32:31.960Z,72.19
2022-09-29T20:34:53.720Z,72.28
2022-09-29T20:37:15.643Z,72.27
2022-09-29T20:39:37.545Z,72.16
2022-09-29T20:41:59.516Z,72.26
2022-09-29T20:44:26.301Z,72.30
2022-09-29T20:46:48.134Z,72.33
2022-09-29T20:49:10.184Z,72.41
2022-09-29T20:51:37.679Z,72.33
2022-09-29T20:54:01.559Z,72.34
2022-09-29T20:56:31.214Z,72.50
2022-09-29T20:58:53.003Z,72.74
2022-09-29T21:01:22.778Z,72.87
2022-09-29T21:03:54.644Z,72.69
2022-09-29T21:06:17.709Z,73.16
2022-09-29T21:08:41.564Z,73.17
2022-09-29T21:11:05.569Z,72.98
2022-09-29T21:13:29.594Z,73.11
2022-09-29T21:15:51.357Z,73.05
2022-09-29T21:18:13.171Z,73.16
2022-09-29T21:20:35.115Z,73.13
2022-09-29T21:22:56.855Z,73.13
2022-09-29T21:25:18.619Z,72.98
2022-09-29T21:27:41.620Z,73.04
2022-09-29T21:30:04.124Z,72.79
2022-09-29T21:32:25.900Z,72.74
2022-09-29T21:34:47.722Z,72.79
2022-09-29T21:37:10.290Z,72.81
2022-09-29T21:39:32.243Z,73.03
2022-09-29T21:41:54.023Z,73.13
2022-09-29T21:44:20.756Z,73.41
2022-09-29T21:46:43.832Z,73.62
2022-09-29T21:49:08.981Z,73.61
2022-09-29T21:51:40.232Z,73.45
2022-09-29T21:54:02.849Z,73.69
2022-09-29T21:56:29.372Z,73.63
2022-09-29T21:58:54.167Z,73.73
2022-09-29T22:01:17.017Z,73.64
2022-09-29T22:03:42.769Z,74.00
2022-09-29T22:06:10.284Z,73.79
2022-09-29T22:08:32.613Z,73.80
2022-09-29T22:10:55.229Z,73.81
2022-09-29T22:13:18.483Z,73.59
2022-09-29T22:15:40.627Z,74.06
2022-09-29T22:18:02.516Z,73.88
2022-09-29T22:20:24.452Z,73.79
2022-09-29T22:22:46.203Z,73.72
2022-09-29T22:25:08.379Z,73.89
2022-09-29T22:27:30.140Z,73.85
2022-09-29T22:29:52.365Z,74.06
2022-09-29T22:32:14.114Z,73.94
2022-09-29T22:34:35.960Z,73.89
2022-09-29T22:36:57.877Z,73.58
2022-09-29T22:39:19.853Z,74.09
2022-09-29T22:41:42.335Z,73.79
2022-09-29T22:44:04.330Z,74.04
2022-09-29T22:46:29.970Z,74.19
2022-09-29T22:48:52.474Z,73.85
2022-09-29T22:51:14.978Z,74.09
2022-09-29T22:53:37.903Z,74.21
2022-09-29T22:56:07.479Z,73.78
2022-09-29T22:58:29.271Z,74.35
2022-09-29T23:01:03.695Z,74.13
2022-09-29T23:03:25.446Z,74.01
2022-09-29T23:05:47.252Z,74.07
2022-09-29T23:08:09.069Z,74.27
2022-09-29T23:10:30.832Z,73.90
2022-09-29T23:12:52.993Z,73.96
2022-09-29T23:15:15.230Z,74.23
2022-09-29T23:17:37.550Z,74.17
2022-09-29T23:20:00.347Z,73.46
2022-09-29T23:22:23.347Z,73.64
2022-09-29T23:24:45.107Z,73.98
2022-09-29T23:27:06.875Z,73.99
2022-09-29T23:29:28.633Z,74.00
2022-09-29T23:31:50.749Z,74.25
2022-09-29T23:34:13.207Z,73.90
2022-09-29T23:36:34.959Z,73.92
2022-09-29T23:39:14.080Z,74.18
2022-09-29T23:41:39.600Z,74.21
2022-09-29T23:44:05.377Z,74.34
2022-09-29T23:46:32.294Z,74.11
2022-09-29T23:48:54.148Z,73.81
2022-09-29T23:51:16.049Z,74.44
2022-09-29T23:53:37.824Z,74.65
2022-09-29T23:55:59.599Z,74.09
2022-09-29T23:58:21.361Z,74.15
